Time;durP1;ratioP1;P1;durP2;ratioP2;P2;SDS_P1;SDS_P2;PMS_P1;PMS_P2;Temp;Humidity;BMP_temperature;BMP_pressure;BME280_temperature;BME280_humidity;BME280_pressure;Samples;Min_cycle;Max_cycle;Signal;HPM_P1;HPM_P2
2021/09/24 00:00:32;;;;;;;24.77;23.30;;;13.30;88.30;;;;;;5040900;28;20472;-72
2021/09/24 00:02:59;;;;;;;24.73;23.33;;;13.20;88.30;;;;;;5041739;28;20547;-72
2021/09/24 00:05:26;;;;;;;24.80;23.30;;;13.30;88.20;;;;;;5042413;28;20828;-71
2021/09/24 00:07:53;;;;;;;25.73;23.93;;;13.30;87.90;;;;;;5044174;28;20543;-72
2021/09/24 00:10:21;;;;;;;25.30;23.80;;;13.20;88.20;;;;;;5040880;28;20478;-72
2021/09/24 00:12:49;;;;;;;25.50;24.00;;;13.20;88.50;;;;;;5041142;28;20531;-71
2021/09/24 00:15:19;;;;;;;25.73;24.13;;;13.20;88.40;;;;;;5039208;28;20465;-72
2021/09/24 00:17:46;;;;;;;25.83;24.23;;;13.10;88.70;;;;;;5047038;28;20458;-72
2021/09/24 00:20:14;;;;;;;25.70;24.10;;;13.00;88.90;;;;;;5044443;28;20550;-71
2021/09/24 00:22:41;;;;;;;25.80;24.20;;;13.00;89.00;;;;;;5043749;28;20475;-72
2021/09/24 00:25:10;;;;;;;25.30;23.70;;;13.00;89.10;;;;;;5048481;28;20460;-72
2021/09/24 00:27:37;;;;;;;25.13;23.73;;;13.10;89.00;;;;;;5047252;28;20919;-72
2021/09/24 00:30:07;;;;;;;25.27;23.73;;;13.10;88.80;;;;;;5049010;28;21010;-72
2021/09/24 00:32:34;;;;;;;24.90;23.53;;;13.10;88.70;;;;;;5045870;28;20462;-72
2021/09/24 00:35:01;;;;;;;25.03;23.63;;;13.00;88.70;;;;;;5051930;28;20461;-72
2021/09/24 00:37:28;;;;;;;26.00;24.10;;;13.00;88.70;;;;;;5036831;28;20870;-72
2021/09/24 00:39:54;;;;;;;26.10;24.50;;;13.00;89.10;;;;;;5041278;28;20510;-72
2021/09/24 00:42:21;;;;;;;25.63;24.13;;;12.90;89.20;;;;;;5034424;28;20463;-72
2021/09/24 00:44:51;;;;;;;25.10;23.60;;;12.90;89.30;;;;;;5043282;28;20455;-71
2021/09/24 00:47:22;;;;;;;25.33;23.73;;;12.90;89.40;;;;;;5046175;28;20471;-70
2021/09/24 00:49:51;;;;;;;25.30;23.70;;;12.80;89.60;;;;;;5042514;28;21028;-71
2021/09/24 00:52:18;;;;;;;26.03;24.43;;;12.80;89.60;;;;;;5038501;28;20554;-70
2021/09/24 00:54:47;;;;;;;25.00;23.40;;;12.80;89.70;;;;;;5044674;28;20969;-70
2021/09/24 00:57:14;;;;;;;26.80;25.07;;;12.70;89.70;;;;;;5048179;28;20805;-70
2021/09/24 00:59:41;;;;;;;25.80;24.20;;;12.70;89.80;;;;;;5046383;28;20493;-70
2021/09/24 01:02:08;;;;;;;27.43;25.53;;;12.70;89.70;;;;;;5042967;28;20813;-70
2021/09/24 01:04:36;;;;;;;27.13;25.23;;;12.70;89.50;;;;;;5047935;28;20451;-70
2021/09/24 01:07:04;;;;;;;27.60;25.63;;;12.60;89.40;;;;;;5049841;28;20451;-70
2021/09/24 01:09:31;;;;;;;26.53;24.63;;;12.50;89.60;;;;;;5041556;28;20475;-70
2021/09/24 01:11:58;;;;;;;26.93;25.33;;;12.40;90.20;;;;;;5043148;28;20481;-70
2021/09/24 01:14:29;;;;;;;26.80;24.90;;;12.30;90.40;;;;;;5047711;28;20466;-70
2021/09/24 01:16:56;;;;;;;25.93;24.40;;;12.30;90.50;;;;;;5041905;28;20467;-71
2021/09/24 01:19:23;;;;;;;27.47;25.57;;;12.30;90.60;;;;;;5046471;28;20482;-70
2021/09/24 01:21:51;;;;;;;25.97;24.17;;;12.30;90.60;;;;;;5037556;28;20856;-70
2021/09/24 01:24:18;;;;;;;26.13;24.40;;;12.30;90.50;;;;;;5045545;28;21128;-70
2021/09/24 01:26:50;;;;;;;27.03;25.23;;;12.30;90.70;;;;;;5048269;28;20456;-70
2021/09/24 01:29:18;;;;;;;27.37;25.47;;;12.30;90.70;;;;;;5041848;28;20546;-70
2021/09/24 01:31:46;;;;;;;27.50;25.50;;;12.30;90.80;;;;;;5047561;28;20507;-70
2021/09/24 01:34:12;;;;;;;26.83;24.90;;;12.30;90.70;;;;;;5038358;28;20470;-70
2021/09/24 01:36:39;;;;;;;25.77;24.07;;;12.30;90.80;;;;;;5053414;28;20466;-71
2021/09/24 01:39:09;;;;;;;25.73;24.03;;;12.40;90.80;;;;;;5049401;28;20459;-71
2021/09/24 01:41:39;;;;;;;24.90;23.30;;;12.40;90.90;;;;;;5046420;28;20540;-70
2021/09/24 01:44:05;;;;;;;25.50;23.90;;;12.30;91.10;;;;;;5034970;28;20470;-70
2021/09/24 01:46:36;;;;;;;25.43;23.83;;;12.40;91.10;;;;;;5049172;28;20451;-70
2021/09/24 01:49:03;;;;;;;23.80;22.40;;;12.40;91.10;;;;;;5036049;28;20462;-70
2021/09/24 01:51:30;;;;;;;24.33;22.93;;;12.40;91.10;;;;;;5055581;28;20998;-70
2021/09/24 01:53:57;;;;;;;25.50;23.90;;;12.40;91.00;;;;;;5048143;28;20461;-70
2021/09/24 01:56:25;;;;;;;25.70;24.10;;;12.50;90.80;;;;;;5036396;28;20473;-71
2021/09/24 01:58:52;;;;;;;24.93;23.43;;;12.50;90.60;;;;;;5041042;28;20458;-70
2021/09/24 02:01:19;;;;;;;26.27;24.67;;;12.40;90.70;;;;;;5045899;28;21003;-70
2021/09/24 02:03:46;;;;;;;25.40;23.73;;;12.50;90.60;;;;;;5045102;28;20459;-70
2021/09/24 02:06:13;;;;;;;24.40;22.90;;;12.50;90.40;;;;;;5039500;28;20472;-70
2021/09/24 02:08:40;;;;;;;25.57;24.10;;;12.50;90.40;;;;;;5051302;28;20831;-70
2021/09/24 02:11:10;;;;;;;24.83;23.33;;;12.40;90.50;;;;;;5043800;28;20487;-70
2021/09/24 02:13:39;;;;;;;26.33;24.73;;;12.40;90.40;;;;;;5053596;28;20478;-70
2021/09/24 02:16:06;;;;;;;25.10;23.60;;;12.40;90.50;;;;;;5054435;28;20468;-70
2021/09/24 02:18:33;;;;;;;24.40;23.00;;;12.40;90.40;;;;;;5041628;28;20550;-70
2021/09/24 02:20:59;;;;;;;25.17;23.57;;;12.40;90.60;;;;;;5040884;28;20475;-71
2021/09/24 02:23:27;;;;;;;24.53;22.80;;;12.30;90.50;;;;;;5046836;28;20558;-70
2021/09/24 02:25:54;;;;;;;24.20;22.90;;;12.40;90.50;;;;;;5044740;28;20817;-70
2021/09/24 02:28:20;;;;;;;24.30;22.90;;;12.40;90.20;;;;;;5038757;28;20562;-71
2021/09/24 02:30:49;;;;;;;24.53;23.03;;;12.40;90.20;;;;;;5045895;28;20854;-70
2021/09/24 02:33:16;;;;;;;25.53;23.73;;;12.30;90.20;;;;;;5040599;28;20474;-70
2021/09/24 02:35:42;;;;;;;25.17;23.60;;;12.30;90.50;;;;;;5042135;28;20447;-70
2021/09/24 02:38:09;;;;;;;25.40;24.00;;;12.30;90.50;;;;;;5040636;28;20539;-72
2021/09/24 02:40:36;;;;;;;25.73;23.90;;;12.30;90.40;;;;;;5038215;28;21008;-72
2021/09/24 02:43:04;;;;;;;26.00;24.20;;;12.30;90.30;;;;;;5035302;28;20554;-71
2021/09/24 02:45:31;;;;;;;25.53;23.90;;;12.30;90.30;;;;;;5044340;28;20459;-72
2021/09/24 02:47:59;;;;;;;25.47;23.60;;;12.30;90.50;;;;;;5038494;28;20464;-72
2021/09/24 02:50:26;;;;;;;25.30;23.70;;;12.20;90.50;;;;;;5046431;28;20489;-71
2021/09/24 02:52:53;;;;;;;24.80;23.30;;;12.30;90.50;;;;;;5044493;28;20498;-72
2021/09/24 02:55:21;;;;;;;26.07;24.50;;;12.20;90.30;;;;;;5048569;28;20455;-72
2021/09/24 02:57:48;;;;;;;25.33;23.80;;;12.20;90.40;;;;;;5060059;28;20856;-71
2021/09/24 03:00:16;;;;;;;25.83;24.23;;;12.20;90.30;;;;;;5048457;28;20984;-72
2021/09/24 03:02:43;;;;;;;25.47;23.97;;;12.10;90.50;;;;;;5046029;28;20470;-72
2021/09/24 03:05:12;;;;;;;24.43;22.93;;;12.10;90.50;;;;;;5049344;28;21038;-71
2021/09/24 03:07:39;;;;;;;25.50;24.00;;;12.10;90.50;;;;;;5044346;28;20455;-71
2021/09/24 03:10:07;;;;;;;25.00;23.47;;;12.10;90.50;;;;;;5039775;28;21347;-72
2021/09/24 03:12:34;;;;;;;26.63;24.97;;;12.10;90.90;;;;;;5041630;28;21027;-72
2021/09/24 03:15:01;;;;;;;26.00;24.30;;;12.00;91.10;;;;;;5040349;28;20459;-71
2021/09/24 03:17:28;;;;;;;26.30;24.70;;;12.00;91.00;;;;;;5044365;28;21032;-71
2021/09/24 03:19:55;;;;;;;27.30;25.43;;;12.00;91.20;;;;;;5047547;28;20485;-71
2021/09/24 03:22:23;;;;;;;25.93;24.23;;;12.00;91.20;;;;;;5046669;28;20469;-71
2021/09/24 03:24:50;;;;;;;27.20;25.33;;;12.00;91.20;;;;;;5048475;28;20459;-71
2021/09/24 03:27:17;;;;;;;27.77;25.90;;;12.00;91.10;;;;;;5047620;28;20465;-71
2021/09/24 03:29:44;;;;;;;25.63;23.63;;;12.00;91.30;;;;;;5046436;28;20557;-72
2021/09/24 03:32:12;;;;;;;27.30;25.37;;;11.90;91.50;;;;;;5047234;28;21102;-72
2021/09/24 03:34:39;;;;;;;26.17;24.40;;;12.00;91.50;;;;;;5040685;28;20513;-71
2021/09/24 03:37:06;;;;;;;27.37;25.37;;;11.90;91.30;;;;;;5047171;28;20983;-71
2021/09/24 03:39:34;;;;;;;27.30;25.60;;;11.90;91.10;;;;;;5040103;28;20480;-72
2021/09/24 03:42:01;;;;;;;26.13;24.47;;;11.90;91.00;;;;;;5042498;28;20463;-71
2021/09/24 03:44:28;;;;;;;26.67;25.07;;;11.80;90.90;;;;;;5037992;28;20478;-71
2021/09/24 03:46:54;;;;;;;25.43;23.93;;;11.80;90.90;;;;;;5048370;28;20500;-71
2021/09/24 03:49:23;;;;;;;26.57;24.97;;;11.80;90.80;;;;;;5036597;28;20506;-71
2021/09/24 03:51:50;;;;;;;26.10;24.50;;;11.70;91.00;;;;;;5054529;28;21027;-71
2021/09/24 03:54:17;;;;;;;26.93;25.23;;;11.70;91.10;;;;;;5038770;28;20496;-71
2021/09/24 03:56:45;;;;;;;27.70;25.90;;;11.70;91.00;;;;;;5041839;28;20455;-71
2021/09/24 03:59:12;;;;;;;28.03;26.23;;;11.70;90.90;;;;;;5041459;28;20565;-72
2021/09/24 04:01:40;;;;;;;28.70;26.90;;;11.70;91.00;;;;;;5050534;28;20534;-71
2021/09/24 04:04:07;;;;;;;26.00;24.37;;;11.70;91.00;;;;;;5035732;28;20542;-72
2021/09/24 04:06:34;;;;;;;27.90;26.00;;;11.60;91.20;;;;;;5041688;28;20547;-71
2021/09/24 04:09:01;;;;;;;28.90;27.00;;;11.60;91.70;;;;;;5040282;28;20953;-71
2021/09/24 04:11:28;;;;;;;27.33;25.63;;;11.50;92.10;;;;;;5048200;28;20489;-71
2021/09/24 04:13:56;;;;;;;28.40;26.53;;;11.50;92.40;;;;;;5047950;28;20980;-71
2021/09/24 04:16:23;;;;;;;28.37;26.30;;;11.60;92.40;;;;;;5042872;28;20472;-71
2021/09/24 04:18:50;;;;;;;27.27;25.57;;;11.60;92.50;;;;;;5035031;28;20454;-71
2021/09/24 04:21:17;;;;;;;27.70;25.90;;;11.60;92.30;;;;;;5043194;28;20472;-71
2021/09/24 04:23:44;;;;;;;26.57;24.87;;;11.70;92.30;;;;;;5037532;28;20980;-71
2021/09/24 04:26:11;;;;;;;26.87;25.17;;;11.70;92.40;;;;;;5044367;28;20471;-71
2021/09/24 04:28:38;;;;;;;27.90;26.30;;;11.70;92.30;;;;;;5039213;28;20986;-71
2021/09/24 04:31:06;;;;;;;28.00;26.07;;;11.80;92.20;;;;;;5042422;28;20555;-71
2021/09/24 04:33:33;;;;;;;25.10;23.47;;;11.80;92.20;;;;;;5041591;28;20974;-72
2021/09/24 04:36:00;;;;;;;27.00;25.30;;;11.80;92.10;;;;;;5045591;28;20951;-71
2021/09/24 04:38:27;;;;;;;27.67;25.70;;;11.80;92.10;;;;;;5045586;28;20562;-71
2021/09/24 04:40:54;;;;;;;28.70;26.10;;;11.80;92.00;;;;;;5046845;28;20479;-71
2021/09/24 04:43:21;;;;;;;26.67;24.97;;;11.90;91.90;;;;;;5036913;28;20547;-71
2021/09/24 04:45:48;;;;;;;27.90;25.97;;;11.90;91.70;;;;;;5041691;28;20467;-71
2021/09/24 04:48:16;;;;;;;26.70;25.00;;;11.90;91.80;;;;;;5040228;28;20552;-72
2021/09/24 04:50:43;;;;;;;26.80;24.77;;;11.80;91.90;;;;;;5043939;28;20481;-72
2021/09/24 04:53:10;;;;;;;29.20;27.20;;;11.80;92.00;;;;;;5043002;28;20999;-71
2021/09/24 04:55:37;;;;;;;25.63;24.03;;;11.80;92.10;;;;;;5040849;28;20549;-71
2021/09/24 04:58:04;;;;;;;27.20;25.50;;;11.80;92.20;;;;;;5037980;28;20452;-71
2021/09/24 05:00:31;;;;;;;28.00;26.20;;;11.90;92.10;;;;;;5044787;28;20468;-71
2021/09/24 05:02:58;;;;;;;26.80;24.90;;;12.00;91.90;;;;;;5043971;28;20189;-72
2021/09/24 05:05:26;;;;;;;26.73;25.03;;;11.90;91.90;;;;;;5047363;28;20463;-71
2021/09/24 05:07:53;;;;;;;28.80;26.70;;;11.90;92.00;;;;;;5043705;28;20549;-72
2021/09/24 05:10:19;;;;;;;28.13;26.23;;;11.90;91.80;;;;;;5046440;28;20487;-71
2021/09/24 05:12:46;;;;;;;26.63;24.97;;;11.90;91.90;;;;;;5045074;28;20485;-72
2021/09/24 05:15:14;;;;;;;27.03;25.30;;;11.90;91.90;;;;;;5056894;28;20538;-72
2021/09/24 05:17:41;;;;;;;26.40;24.67;;;11.90;91.80;;;;;;5049018;28;20461;-74
2021/09/24 05:20:09;;;;;;;27.60;25.80;;;11.90;91.90;;;;;;5043096;28;20506;-71
2021/09/24 05:22:37;;;;;;;25.60;23.90;;;11.90;92.00;;;;;;5038624;28;20991;-72
2021/09/24 05:25:05;;;;;;;24.83;23.33;;;11.80;92.10;;;;;;5039454;28;20455;-72
2021/09/24 05:27:32;;;;;;;26.00;24.10;;;11.80;92.30;;;;;;5045723;28;20472;-72
2021/09/24 05:29:59;;;;;;;27.57;25.50;;;11.80;92.30;;;;;;5042419;28;20474;-72
2021/09/24 05:32:26;;;;;;;26.30;24.40;;;11.90;92.20;;;;;;5049191;28;21080;-73
2021/09/24 05:34:54;;;;;;;27.00;25.30;;;11.80;92.30;;;;;;5040719;28;20877;-72
2021/09/24 05:37:20;;;;;;;26.50;24.60;;;11.80;92.60;;;;;;5055742;28;20468;-72
2021/09/24 05:39:49;;;;;;;28.60;26.50;;;11.90;92.50;;;;;;5047465;28;20754;-73
2021/09/24 05:42:16;;;;;;;27.17;25.37;;;12.00;92.20;;;;;;5045935;28;20451;-72
2021/09/24 05:44:43;;;;;;;27.80;25.77;;;12.00;92.20;;;;;;5037693;28;20454;-71
2021/09/24 05:47:10;;;;;;;27.90;26.00;;;12.10;92.20;;;;;;5039676;28;20459;-71
2021/09/24 05:49:37;;;;;;;28.17;26.27;;;12.10;92.00;;;;;;5048791;28;20628;-72
2021/09/24 05:52:04;;;;;;;28.17;26.37;;;12.20;91.60;;;;;;5042418;28;20479;-72
2021/09/24 05:54:31;;;;;;;27.10;25.40;;;12.20;91.30;;;;;;5047766;28;20979;-72
2021/09/24 05:56:59;;;;;;;26.93;25.23;;;12.30;91.40;;;;;;5043516;28;20471;-72
2021/09/24 05:59:26;;;;;;;26.20;24.50;;;12.40;91.20;;;;;;5038304;28;20475;-72
2021/09/24 06:01:53;;;;;;;27.70;25.83;;;12.50;91.00;;;;;;5040652;28;20455;-71
2021/09/24 06:04:20;;;;;;;27.10;25.10;;;12.50;91.00;;;;;;5045953;28;20581;-71
2021/09/24 06:06:47;;;;;;;26.10;24.50;;;12.50;91.20;;;;;;5040868;28;20465;-70
2021/09/24 06:09:14;;;;;;;26.27;24.57;;;12.60;91.00;;;;;;5033266;28;20492;-70
2021/09/24 06:11:41;;;;;;;27.80;25.87;;;12.70;90.90;;;;;;5032609;28;20459;-70
2021/09/24 06:14:10;;;;;;;27.23;25.33;;;12.80;90.40;;;;;;5042321;28;20495;-71
2021/09/24 06:16:36;;;;;;;27.33;25.33;;;12.90;90.10;;;;;;5039110;28;20482;-70
2021/09/24 06:19:03;;;;;;;26.57;24.73;;;13.00;90.00;;;;;;5032272;28;20863;-71
2021/09/24 06:21:30;;;;;;;27.53;25.93;;;13.00;90.00;;;;;;5048920;28;20462;-71
2021/09/24 06:23:57;;;;;;;27.97;26.07;;;13.20;89.60;;;;;;5048502;28;20554;-71
2021/09/24 06:26:25;;;;;;;27.87;26.27;;;13.30;89.30;;;;;;5045683;28;20978;-71
2021/09/24 06:28:52;;;;;;;27.13;25.43;;;13.40;88.80;;;;;;5045988;28;20455;-71
2021/09/24 06:31:20;;;;;;;27.70;25.90;;;13.50;88.30;;;;;;5043420;28;20472;-71
2021/09/24 06:33:47;;;;;;;26.93;25.23;;;13.60;88.10;;;;;;5045988;28;20601;-71
2021/09/24 06:36:17;;;;;;;26.57;24.70;;;13.60;88.20;;;;;;5041726;28;20516;-70
2021/09/24 06:38:45;;;;;;;26.00;24.50;;;13.80;87.50;;;;;;5048187;28;20465;-71
2021/09/24 06:41:13;;;;;;;27.10;25.30;;;13.90;86.90;;;;;;5042966;28;20488;-70
2021/09/24 06:43:40;;;;;;;26.57;25.07;;;13.90;86.80;;;;;;5049148;28;20524;-70
2021/09/24 06:46:07;;;;;;;28.10;26.40;;;14.00;86.80;;;;;;5045355;28;20572;-71
2021/09/24 06:48:35;;;;;;;26.53;24.80;;;14.20;86.20;;;;;;5050177;28;20471;-70
2021/09/24 06:51:07;;;;;;;26.87;25.17;;;14.30;85.90;;;;;;5045262;28;20471;-72
2021/09/24 06:53:34;;;;;;;27.30;25.60;;;14.30;85.80;;;;;;5055281;28;20926;-70
2021/09/24 06:56:01;;;;;;;27.20;25.40;;;14.40;85.70;;;;;;5045983;28;20465;-71
2021/09/24 06:58:28;;;;;;;26.90;25.20;;;14.50;85.50;;;;;;5036788;28;20549;-71
2021/09/24 07:00:55;;;;;;;28.70;26.90;;;14.60;85.20;;;;;;5039651;28;20480;-72
2021/09/24 07:03:22;;;;;;;27.50;25.77;;;14.70;84.90;;;;;;5046372;28;20457;-72
2021/09/24 07:05:50;;;;;;;27.07;25.10;;;14.90;84.30;;;;;;5046003;28;20516;-73
2021/09/24 07:08:19;;;;;;;26.83;25.03;;;15.00;84.20;;;;;;5039958;28;20459;-73
2021/09/24 07:10:46;;;;;;;28.00;26.20;;;15.10;84.00;;;;;;5043733;28;20980;-72
2021/09/24 07:13:13;;;;;;;27.67;25.97;;;15.20;83.70;;;;;;5044790;28;20472;-71
2021/09/24 07:15:43;;;;;;;27.80;26.20;;;15.30;83.50;;;;;;5048883;28;20455;-71
2021/09/24 07:18:12;;;;;;;27.90;25.90;;;15.40;83.20;;;;;;5042953;28;20462;-71
2021/09/24 07:20:39;;;;;;;28.90;27.00;;;15.40;83.00;;;;;;5048297;28;20475;-71
2021/09/24 07:23:08;;;;;;;27.87;26.27;;;15.50;82.80;;;;;;5048816;28;20465;-71
2021/09/24 07:25:35;;;;;;;28.13;26.33;;;15.60;82.60;;;;;;5049299;28;20455;-72
2021/09/24 07:28:02;;;;;;;29.70;27.90;;;15.70;82.40;;;;;;5040912;28;20533;-72
2021/09/24 07:30:28;;;;;;;29.50;27.57;;;15.80;82.30;;;;;;5040666;28;20481;-72
2021/09/24 07:32:55;;;;;;;28.47;26.70;;;16.00;81.90;;;;;;5045906;28;20482;-72
2021/09/24 07:35:22;;;;;;;27.63;25.90;;;16.00;81.60;;;;;;5053514;28;20488;-73
2021/09/24 07:37:49;;;;;;;27.83;26.20;;;16.20;81.40;;;;;;5045429;28;20473;-72
2021/09/24 07:40:17;;;;;;;29.13;27.33;;;16.20;81.00;;;;;;5044468;28;20488;-72
2021/09/24 07:42:45;;;;;;;29.50;27.63;;;16.40;80.90;;;;;;5037814;28;20539;-72
2021/09/24 07:45:12;;;;;;;29.23;27.43;;;16.50;80.50;;;;;;5039917;28;20460;-72
2021/09/24 07:47:39;;;;;;;30.73;28.73;;;16.60;80.20;;;;;;5035522;28;20482;-72
2021/09/24 07:50:07;;;;;;;29.63;27.93;;;16.70;79.90;;;;;;5048395;28;21056;-74
2021/09/24 07:52:34;;;;;;;30.20;28.30;;;16.80;79.60;;;;;;5045915;28;20538;-72
2021/09/24 07:55:01;;;;;;;29.93;27.90;;;16.90;79.50;;;;;;5051842;28;20466;-73
2021/09/24 07:57:30;;;;;;;31.30;29.30;;;17.00;79.10;;;;;;5063118;28;20490;-73
2021/09/24 07:59:56;;;;;;;29.43;27.63;;;17.20;78.70;;;;;;5044996;28;20487;-73
2021/09/24 08:02:23;;;;;;;35.37;33.20;;;17.20;78.30;;;;;;5047160;28;20537;-73
2021/09/24 08:04:50;;;;;;;31.50;29.63;;;17.30;78.30;;;;;;5044896;28;20465;-73
2021/09/24 08:07:17;;;;;;;32.43;30.33;;;17.40;78.20;;;;;;5051265;28;20455;-73
2021/09/24 08:09:44;;;;;;;30.90;29.20;;;17.60;77.20;;;;;;5039459;28;20483;-73
2021/09/24 08:12:11;;;;;;;30.03;28.23;;;17.60;76.50;;;;;;5038772;28;20555;-73
2021/09/24 08:14:39;;;;;;;30.47;28.67;;;17.80;75.70;;;;;;5045650;28;21050;-74
2021/09/24 08:17:07;;;;;;;32.77;30.83;;;17.90;75.20;;;;;;5042654;28;20562;-73
2021/09/24 08:19:35;;;;;;;30.90;29.10;;;17.90;75.10;;;;;;5043949;28;20471;-72
2021/09/24 08:22:02;;;;;;;31.73;29.67;;;18.00;74.40;;;;;;5040968;28;20459;-73
2021/09/24 08:24:29;;;;;;;29.90;28.10;;;18.00;74.00;;;;;;5045623;28;20530;-73
2021/09/24 08:26:56;;;;;;;31.90;29.67;;;18.10;74.10;;;;;;5043398;28;21041;-72
2021/09/24 08:29:24;;;;;;;29.63;27.73;;;18.20;73.70;;;;;;5043543;28;20936;-73
2021/09/24 08:31:53;;;;;;;29.60;27.80;;;18.30;73.20;;;;;;5044717;28;20817;-73
2021/09/24 08:34:20;;;;;;;31.57;29.77;;;18.40;72.70;;;;;;5042655;28;20490;-72
2021/09/24 08:36:47;;;;;;;31.10;29.20;;;18.40;73.00;;;;;;5045502;28;20463;-72
2021/09/24 08:39:14;;;;;;;32.73;30.27;;;18.50;72.90;;;;;;5043509;28;21012;-72
2021/09/24 08:41:41;;;;;;;31.00;29.20;;;18.60;72.30;;;;;;5046630;28;20490;-72
2021/09/24 08:44:07;;;;;;;30.77;28.67;;;18.60;72.30;;;;;;5045785;28;20465;-72
2021/09/24 08:46:35;;;;;;;33.03;31.17;;;18.70;71.90;;;;;;5045873;28;20459;-72
2021/09/24 08:49:05;;;;;;;31.03;29.03;;;18.80;71.90;;;;;;5044482;28;20455;-71
2021/09/24 08:51:34;;;;;;;30.80;28.80;;;18.90;71.70;;;;;;5047982;28;20554;-72
2021/09/24 08:54:01;;;;;;;29.80;28.10;;;18.90;71.70;;;;;;5044732;28;21137;-71
2021/09/24 08:56:28;;;;;;;31.53;29.23;;;19.00;71.60;;;;;;5047004;28;20451;-72
2021/09/24 08:58:55;;;;;;;31.50;29.60;;;19.10;71.10;;;;;;5048140;28;20451;-73
2021/09/24 09:01:22;;;;;;;30.93;29.07;;;19.30;70.60;;;;;;5044981;28;20486;-72
2021/09/24 09:03:49;;;;;;;31.93;29.80;;;19.40;70.50;;;;;;5047943;28;20455;-72
2021/09/24 09:06:19;;;;;;;31.80;29.80;;;19.50;70.00;;;;;;5045665;28;20452;-72
2021/09/24 09:08:47;;;;;;;31.90;30.10;;;19.70;70.60;;;;;;5046791;28;20465;-72
2021/09/24 09:11:18;;;;;;;32.13;30.00;;;19.80;70.30;;;;;;5044525;28;20472;-72
2021/09/24 09:13:48;;;;;;;32.27;30.37;;;19.90;69.70;;;;;;5047855;28;20470;-73
2021/09/24 09:16:18;;;;;;;33.03;31.03;;;19.90;69.30;;;;;;5043381;28;20471;-72
2021/09/24 09:18:47;;;;;;;32.20;30.00;;;20.00;69.00;;;;;;5036915;28;20458;-74
2021/09/24 09:21:17;;;;;;;31.40;29.50;;;20.10;68.70;;;;;;5040761;28;20484;-73
2021/09/24 09:23:48;;;;;;;31.73;29.40;;;20.30;68.10;;;;;;5044335;28;20519;-72
2021/09/24 09:26:17;;;;;;;30.93;29.17;;;20.30;67.70;;;;;;5044536;28;20463;-72
2021/09/24 09:28:52;;;;;;;31.30;29.20;;;20.50;67.60;;;;;;5037526;28;20539;-72
2021/09/24 09:31:23;;;;;;;30.93;28.80;;;20.60;67.60;;;;;;5042296;28;20482;-73
2021/09/24 09:33:50;;;;;;;31.00;29.10;;;20.70;67.00;;;;;;5044994;28;20475;-73
2021/09/24 09:36:30;;;;;;;30.47;28.50;;;20.90;66.70;;;;;;5045888;28;20459;-73
2021/09/24 09:38:58;;;;;;;31.07;29.17;;;21.10;66.50;;;;;;5042337;28;20465;-72
2021/09/24 09:41:30;;;;;;;34.17;31.33;;;21.20;66.00;;;;;;5046305;28;20458;-72
2021/09/24 09:44:00;;;;;;;33.27;31.37;;;21.40;65.50;;;;;;5045968;28;20465;-73
2021/09/24 09:46:31;;;;;;;31.60;29.40;;;21.40;65.20;;;;;;5045764;28;20465;-75
2021/09/24 09:49:07;;;;;;;32.13;30.13;;;21.50;64.90;;;;;;5038230;28;20825;-73
2021/09/24 09:51:38;;;;;;;29.80;28.20;;;21.70;64.70;;;;;;5042017;28;20941;-73
2021/09/24 09:54:06;;;;;;;29.53;27.77;;;21.80;63.90;;;;;;5044150;28;20855;-71
2021/09/24 09:56:39;;;;;;;30.40;28.60;;;21.70;63.70;;;;;;5041435;28;20464;-71
2021/09/24 09:59:24;;;;;;;29.70;27.93;;;21.80;63.80;;;;;;5033147;28;20543;-71
2021/09/24 10:02:09;;;;;;;30.77;28.80;;;21.90;63.40;;;;;;5041730;28;20460;-70
2021/09/24 10:04:38;;;;;;;29.67;27.87;;;22.10;63.70;;;;;;5035309;28;20458;-72
2021/09/24 10:07:13;;;;;;;31.40;29.27;;;22.20;63.40;;;;;;5047071;28;20459;-71
2021/09/24 10:09:40;;;;;;;31.30;29.23;;;22.30;62.80;;;;;;5041058;28;20489;-72
2021/09/24 10:12:19;;;;;;;30.63;28.40;;;22.40;62.40;;;;;;5038675;28;20451;-72
2021/09/24 10:14:48;;;;;;;29.97;27.97;;;22.50;62.30;;;;;;5042574;28;20484;-72
2021/09/24 10:17:16;;;;;;;29.70;28.10;;;22.70;62.10;;;;;;5043514;28;20490;-72
2021/09/24 10:19:44;;;;;;;29.50;27.90;;;22.70;61.30;;;;;;5041791;28;20483;-72
2021/09/24 10:22:14;;;;;;;30.47;28.80;;;22.70;61.20;;;;;;5044977;28;21507;-72
2021/09/24 10:24:43;;;;;;;29.63;27.90;;;22.70;60.90;;;;;;5044714;28;20462;-72
2021/09/24 10:27:17;;;;;;;31.40;29.20;;;22.60;60.80;;;;;;5046976;28;20473;-72
2021/09/24 10:29:49;;;;;;;29.70;27.20;;;22.50;61.70;;;;;;5042662;28;20482;-71
2021/09/24 10:32:18;;;;;;;29.20;27.50;;;22.40;61.70;;;;;;5044615;28;20558;-71
2021/09/24 10:34:57;;;;;;;29.73;28.13;;;22.30;61.80;;;;;;5044485;28;20485;-71
2021/09/24 10:37:26;;;;;;;29.60;27.50;;;22.30;61.30;;;;;;5041084;28;20534;-72
2021/09/24 10:40:00;;;;;;;29.60;27.70;;;22.30;61.40;;;;;;5040361;28;20562;-71
2021/09/24 10:42:43;;;;;;;29.70;28.10;;;22.10;60.80;;;;;;5040560;28;20465;-72
2021/09/24 10:45:17;;;;;;;30.40;28.60;;;22.00;61.10;;;;;;5037013;28;20473;-72
2021/09/24 10:48:01;;;;;;;29.90;27.90;;;22.00;61.30;;;;;;5046188;28;20456;-72
2021/09/24 10:51:03;;;;;;;30.10;28.10;;;22.10;61.60;;;;;;5045135;28;20496;-72
2021/09/24 10:53:46;;;;;;;28.63;27.03;;;22.10;60.80;;;;;;5057095;28;20470;-74
2021/09/24 10:56:33;;;;;;;28.30;26.70;;;22.20;61.20;;;;;;5041041;28;20452;-73
2021/09/24 10:59:22;;;;;;;32.70;30.60;;;22.20;61.30;;;;;;5040590;28;20541;-74
2021/09/24 11:01:49;;;;;;;31.03;28.93;;;22.30;61.20;;;;;;5030887;28;20461;-72
2021/09/24 11:04:16;;;;;;;32.20;29.10;;;22.30;61.30;;;;;;5034324;28;20470;-72
2021/09/24 11:06:46;;;;;;;31.17;28.87;;;22.30;61.20;;;;;;5040610;28;20510;-73
2021/09/24 11:09:16;;;;;;;29.23;27.33;;;22.40;60.70;;;;;;5034430;28;20550;-73
2021/09/24 11:11:45;;;;;;;29.47;27.77;;;22.40;61.10;;;;;;5049510;28;20447;-76
2021/09/24 11:14:28;;;;;;;29.17;27.47;;;22.40;60.60;;;;;;5037374;28;20478;-73
2021/09/24 11:16:56;;;;;;;30.23;28.53;;;22.50;59.90;;;;;;5046214;28;20454;-73
2021/09/24 11:19:31;;;;;;;28.80;27.10;;;22.40;60.10;;;;;;5038798;28;20493;-73
2021/09/24 11:22:13;;;;;;;28.80;26.97;;;22.30;60.20;;;;;;5048266;28;20465;-72
2021/09/24 11:24:45;;;;;;;29.30;27.60;;;22.10;60.20;;;;;;5046910;28;20494;-70
2021/09/24 11:27:14;;;;;;;31.93;30.03;;;22.10;60.50;;;;;;5048145;28;20465;-70
2021/09/24 11:29:42;;;;;;;31.50;29.57;;;22.10;60.70;;;;;;5046912;28;21042;-72
2021/09/24 11:32:11;;;;;;;29.20;27.53;;;22.10;60.70;;;;;;5041151;28;20468;-71
2021/09/24 11:34:57;;;;;;;29.50;27.77;;;22.20;59.90;;;;;;5038105;28;20474;-70
2021/09/24 11:37:25;;;;;;;29.97;27.60;;;22.20;60.30;;;;;;5046609;28;20953;-71
2021/09/24 11:40:01;;;;;;;30.83;28.73;;;22.20;60.60;;;;;;5042693;28;20502;-73
2021/09/24 11:42:31;;;;;;;30.10;28.30;;;22.30;60.50;;;;;;5044883;28;20545;-73
2021/09/24 11:45:00;;;;;;;28.80;27.10;;;22.40;60.10;;;;;;5046774;28;20949;-71
2021/09/24 11:47:30;;;;;;;31.40;29.40;;;22.40;60.40;;;;;;5043160;28;20459;-72
2021/09/24 11:49:59;;;;;;;34.27;32.13;;;22.60;60.00;;;;;;5034939;28;20476;-72
2021/09/24 11:52:40;;;;;;;29.40;27.60;;;22.60;60.20;;;;;;5050229;28;21036;-72
2021/09/24 11:55:20;;;;;;;30.30;28.27;;;22.60;59.10;;;;;;5041632;28;20849;-72
2021/09/24 11:58:02;;;;;;;30.33;28.53;;;22.70;59.10;;;;;;5040738;28;20481;-74
2021/09/24 12:00:31;;;;;;;33.20;29.80;;;22.80;58.90;;;;;;5039711;28;21538;-74
2021/09/24 12:03:19;;;;;;;30.30;28.50;;;22.70;59.10;;;;;;5047962;28;20451;-73
2021/09/24 12:06:02;;;;;;;29.50;27.67;;;22.90;58.90;;;;;;5047360;28;20457;-72
2021/09/24 12:08:31;;;;;;;30.20;28.10;;;22.90;58.20;;;;;;5035797;28;20460;-73
2021/09/24 12:11:05;;;;;;;29.77;28.00;;;22.90;58.20;;;;;;5041016;28;20483;-73
2021/09/24 12:13:37;;;;;;;30.60;28.80;;;23.00;57.70;;;;;;5047006;28;20463;-74
2021/09/24 12:16:05;;;;;;;30.97;28.93;;;23.00;57.20;;;;;;5044363;28;20470;-73
2021/09/24 12:18:47;;;;;;;30.83;28.50;;;23.00;57.80;;;;;;5045755;28;20467;-76
2021/09/24 12:21:15;;;;;;;30.80;28.90;;;23.10;58.10;;;;;;5048574;28;20566;-74
2021/09/24 12:23:43;;;;;;;30.50;28.50;;;23.10;58.80;;;;;;5046814;28;20463;-73
2021/09/24 12:26:12;;;;;;;30.03;28.33;;;23.30;57.70;;;;;;5049210;28;20916;-72
2021/09/24 12:28:54;;;;;;;30.80;29.00;;;23.30;57.20;;;;;;5050795;28;20487;-72
2021/09/24 12:31:37;;;;;;;29.80;28.10;;;23.10;56.80;;;;;;5054184;28;20478;-71
2021/09/24 12:34:04;;;;;;;29.90;28.20;;;23.10;56.70;;;;;;5051846;28;20537;-70
2021/09/24 12:36:31;;;;;;;28.70;27.10;;;23.10;57.00;;;;;;5037651;28;20504;-71